sensor_id;sensor_type;location;lat;lon;timestamp;P1;durP1;ratioP1;P2;durP2;ratioP2
18449;SDS011;9354;50.194;7.690;2022-11-06T00:00:36;15.33;;;7.70;;
18449;SDS011;9354;50.194;7.690;2022-11-06T00:03:04;16.70;;;8.43;;
18449;SDS011;9354;50.194;7.690;2022-11-06T00:05:32;21.50;;;8.70;;
18449;SDS011;9354;50.194;7.690;2022-11-06T00:08:24;19.27;;;7.80;;
18449;SDS011;9354;50.194;7.690;2022-11-06T00:10:57;18.63;;;8.40;;
18449;SDS011;9354;50.194;7.690;2022-11-06T00:13:27;20.27;;;7.57;;
18449;SDS011;9354;50.194;7.690;2022-11-06T00:15:54;14.83;;;8.17;;
18449;SDS011;9354;50.194;7.690;2022-11-06T00:18:24;18.87;;;8.37;;
18449;SDS011;9354;50.194;7.690;2022-11-06T00:20:53;17.27;;;7.63;;
18449;SDS011;9354;50.194;7.690;2022-11-06T00:23:20;17.13;;;8.13;;
18449;SDS011;9354;50.194;7.690;2022-11-06T00:25:47;21.17;;;8.20;;
18449;SDS011;9354;50.194;7.690;2022-11-06T00:28:17;17.73;;;7.77;;
18449;SDS011;9354;50.194;7.690;2022-11-06T00:30:46;14.37;;;7.67;;
18449;SDS011;9354;50.194;7.690;2022-11-06T00:33:13;15.33;;;7.33;;
18449;SDS011;9354;50.194;7.690;2022-11-06T00:35:41;14.77;;;7.43;;
18449;SDS011;9354;50.194;7.690;2022-11-06T00:38:08;24.37;;;8.43;;
18449;SDS011;9354;50.194;7.690;2022-11-06T00:40:35;17.67;;;7.60;;
18449;SDS011;9354;50.194;7.690;2022-11-06T00:43:03;20.57;;;8.23;;
18449;SDS011;9354;50.194;7.690;2022-11-06T00:45:30;16.37;;;8.10;;
18449;SDS011;9354;50.194;7.690;2022-11-06T00:47:59;22.13;;;8.43;;
18449;SDS011;9354;50.194;7.690;2022-11-06T00:50:26;21.40;;;9.17;;
18449;SDS011;9354;50.194;7.690;2022-11-06T00:52:54;21.80;;;9.20;;
18449;SDS011;9354;50.194;7.690;2022-11-06T00:55:21;23.70;;;10.03;;
18449;SDS011;9354;50.194;7.690;2022-11-06T00:57:49;23.50;;;9.47;;
18449;SDS011;9354;50.194;7.690;2022-11-06T01:00:16;20.47;;;9.23;;
18449;SDS011;9354;50.194;7.690;2022-11-06T01:02:45;21.90;;;9.40;;
18449;SDS011;9354;50.194;7.690;2022-11-06T01:05:14;22.20;;;9.43;;
18449;SDS011;9354;50.194;7.690;2022-11-06T01:07:41;18.60;;;9.30;;
18449;SDS011;9354;50.194;7.690;2022-11-06T01:10:09;20.57;;;9.17;;
18449;SDS011;9354;50.194;7.690;2022-11-06T01:12:36;17.67;;;8.57;;
18449;SDS011;9354;50.194;7.690;2022-11-06T01:15:04;22.47;;;8.57;;
18449;SDS011;9354;50.194;7.690;2022-11-06T01:17:33;23.03;;;9.10;;
18449;SDS011;9354;50.194;7.690;2022-11-06T01:20:01;18.67;;;9.00;;
18449;SDS011;9354;50.194;7.690;2022-11-06T01:22:30;18.77;;;9.03;;
18449;SDS011;9354;50.194;7.690;2022-11-06T01:24:57;28.20;;;9.97;;
18449;SDS011;9354;50.194;7.690;2022-11-06T01:27:25;19.07;;;9.10;;
18449;SDS011;9354;50.194;7.690;2022-11-06T01:29:52;19.23;;;8.30;;
18449;SDS011;9354;50.194;7.690;2022-11-06T01:32:19;18.03;;;8.27;;
18449;SDS011;9354;50.194;7.690;2022-11-06T01:34:47;20.00;;;9.13;;
18449;SDS011;9354;50.194;7.690;2022-11-06T01:37:15;15.30;;;7.23;;
18449;SDS011;9354;50.194;7.690;2022-11-06T01:39:44;20.13;;;8.27;;
18449;SDS011;9354;50.194;7.690;2022-11-06T01:42:12;16.57;;;7.83;;
18449;SDS011;9354;50.194;7.690;2022-11-06T01:47:49;16.73;;;7.40;;
18449;SDS011;9354;50.194;7.690;2022-11-06T01:50:17;21.83;;;7.57;;
18449;SDS011;9354;50.194;7.690;2022-11-06T01:52:45;18.67;;;7.83;;
18449;SDS011;9354;50.194;7.690;2022-11-06T01:55:17;18.27;;;7.83;;
18449;SDS011;9354;50.194;7.690;2022-11-06T01:57:48;15.80;;;7.00;;
18449;SDS011;9354;50.194;7.690;2022-11-06T02:00:16;22.67;;;7.47;;
18449;SDS011;9354;50.194;7.690;2022-11-06T02:02:44;19.63;;;8.03;;
18449;SDS011;9354;50.194;7.690;2022-11-06T02:05:12;22.67;;;7.93;;
18449;SDS011;9354;50.194;7.690;2022-11-06T02:07:40;22.40;;;8.00;;
18449;SDS011;9354;50.194;7.690;2022-11-06T02:10:09;21.93;;;7.97;;
18449;SDS011;9354;50.194;7.690;2022-11-06T02:12:56;17.33;;;7.37;;
18449;SDS011;9354;50.194;7.690;2022-11-06T02:15:38;17.90;;;6.93;;
18449;SDS011;9354;50.194;7.690;2022-11-06T02:18:15;20.30;;;7.60;;
18449;SDS011;9354;50.194;7.690;2022-11-06T02:20:54;17.00;;;7.00;;
18449;SDS011;9354;50.194;7.690;2022-11-06T02:24:01;13.17;;;6.67;;
18449;SDS011;9354;50.194;7.690;2022-11-06T02:26:51;17.70;;;6.97;;
18449;SDS011;9354;50.194;7.690;2022-11-06T02:29:30;19.37;;;6.63;;
18449;SDS011;9354;50.194;7.690;2022-11-06T02:32:03;16.27;;;6.33;;
18449;SDS011;9354;50.194;7.690;2022-11-06T02:34:35;21.07;;;6.30;;
18449;SDS011;9354;50.194;7.690;2022-11-06T02:37:05;16.33;;;6.67;;
18449;SDS011;9354;50.194;7.690;2022-11-06T02:39:37;16.27;;;6.33;;
18449;SDS011;9354;50.194;7.690;2022-11-06T02:42:10;12.07;;;5.70;;
18449;SDS011;9354;50.194;7.690;2022-11-06T02:44:40;13.67;;;5.63;;
18449;SDS011;9354;50.194;7.690;2022-11-06T02:47:10;12.10;;;6.00;;
18449;SDS011;9354;50.194;7.690;2022-11-06T02:49:41;14.83;;;6.20;;
18449;SDS011;9354;50.194;7.690;2022-11-06T02:52:13;12.03;;;6.27;;
18449;SDS011;9354;50.194;7.690;2022-11-06T02:54:46;18.37;;;6.43;;
18449;SDS011;9354;50.194;7.690;2022-11-06T02:57:19;20.57;;;6.73;;
18449;SDS011;9354;50.194;7.690;2022-11-06T02:59:50;16.13;;;6.83;;
18449;SDS011;9354;50.194;7.690;2022-11-06T03:02:22;20.73;;;6.80;;
18449;SDS011;9354;50.194;7.690;2022-11-06T03:04:54;13.23;;;6.80;;
18449;SDS011;9354;50.194;7.690;2022-11-06T03:07:30;12.20;;;6.30;;
18449;SDS011;9354;50.194;7.690;2022-11-06T03:10:02;14.30;;;6.03;;
18449;SDS011;9354;50.194;7.690;2022-11-06T03:12:32;14.97;;;6.53;;
18449;SDS011;9354;50.194;7.690;2022-11-06T03:15:12;14.57;;;6.77;;
18449;SDS011;9354;50.194;7.690;2022-11-06T03:17:45;13.40;;;6.83;;
18449;SDS011;9354;50.194;7.690;2022-11-06T03:20:18;21.27;;;6.87;;
18449;SDS011;9354;50.194;7.690;2022-11-06T03:22:51;15.07;;;6.70;;
18449;SDS011;9354;50.194;7.690;2022-11-06T03:25:22;20.73;;;7.03;;
18449;SDS011;9354;50.194;7.690;2022-11-06T03:27:57;14.47;;;7.03;;
18449;SDS011;9354;50.194;7.690;2022-11-06T03:30:29;15.20;;;7.07;;
18449;SDS011;9354;50.194;7.690;2022-11-06T03:32:59;13.73;;;6.40;;
18449;SDS011;9354;50.194;7.690;2022-11-06T03:35:33;23.70;;;6.87;;
18449;SDS011;9354;50.194;7.690;2022-11-06T03:38:06;14.53;;;6.80;;
18449;SDS011;9354;50.194;7.690;2022-11-06T03:40:39;19.63;;;6.93;;
18449;SDS011;9354;50.194;7.690;2022-11-06T03:43:11;13.73;;;6.70;;
18449;SDS011;9354;50.194;7.690;2022-11-06T03:45:43;15.83;;;6.03;;
18449;SDS011;9354;50.194;7.690;2022-11-06T03:48:13;13.80;;;7.23;;
18449;SDS011;9354;50.194;7.690;2022-11-06T03:50:46;13.93;;;6.50;;
18449;SDS011;9354;50.194;7.690;2022-11-06T03:53:19;16.13;;;7.47;;
18449;SDS011;9354;50.194;7.690;2022-11-06T03:55:49;14.87;;;7.30;;
18449;SDS011;9354;50.194;7.690;2022-11-06T03:58:22;16.60;;;7.13;;
18449;SDS011;9354;50.194;7.690;2022-11-06T04:00:51;18.10;;;6.83;;
18449;SDS011;9354;50.194;7.690;2022-11-06T04:03:21;14.87;;;6.70;;
18449;SDS011;9354;50.194;7.690;2022-11-06T04:05:53;14.07;;;7.13;;
18449;SDS011;9354;50.194;7.690;2022-11-06T04:08:26;17.27;;;7.40;;
18449;SDS011;9354;50.194;7.690;2022-11-06T04:11:12;17.13;;;7.40;;
18449;SDS011;9354;50.194;7.690;2022-11-06T04:14:03;17.40;;;7.50;;
18449;SDS011;9354;50.194;7.690;2022-11-06T04:16:32;17.37;;;7.57;;
18449;SDS011;9354;50.194;7.690;2022-11-06T04:19:02;19.43;;;8.03;;
18449;SDS011;9354;50.194;7.690;2022-11-06T04:21:35;28.63;;;8.13;;
18449;SDS011;9354;50.194;7.690;2022-11-06T04:24:15;19.47;;;8.77;;
18449;SDS011;9354;50.194;7.690;2022-11-06T04:27:13;21.20;;;8.43;;
18449;SDS011;9354;50.194;7.690;2022-11-06T04:29:54;25.67;;;9.00;;
18449;SDS011;9354;50.194;7.690;2022-11-06T04:35:29;21.00;;;8.17;;
18449;SDS011;9354;50.194;7.690;2022-11-06T04:38:03;19.10;;;8.43;;
18449;SDS011;9354;50.194;7.690;2022-11-06T04:40:36;19.83;;;8.30;;
18449;SDS011;9354;50.194;7.690;2022-11-06T04:43:12;20.20;;;8.07;;
18449;SDS011;9354;50.194;7.690;2022-11-06T04:45:48;22.73;;;9.10;;
18449;SDS011;9354;50.194;7.690;2022-11-06T04:48:18;22.03;;;8.97;;
18449;SDS011;9354;50.194;7.690;2022-11-06T04:50:49;17.57;;;8.87;;
18449;SDS011;9354;50.194;7.690;2022-11-06T04:53:20;21.37;;;9.73;;
18449;SDS011;9354;50.194;7.690;2022-11-06T04:55:50;28.30;;;10.17;;
18449;SDS011;9354;50.194;7.690;2022-11-06T04:58:19;23.83;;;9.97;;
18449;SDS011;9354;50.194;7.690;2022-11-06T05:00:48;26.00;;;11.80;;
18449;SDS011;9354;50.194;7.690;2022-11-06T05:03:16;26.87;;;10.63;;
18449;SDS011;9354;50.194;7.690;2022-11-06T05:05:44;22.47;;;10.27;;
18449;SDS011;9354;50.194;7.690;2022-11-06T05:08:12;25.67;;;9.67;;
18449;SDS011;9354;50.194;7.690;2022-11-06T05:10:41;27.73;;;9.67;;
18449;SDS011;9354;50.194;7.690;2022-11-06T05:13:09;24.30;;;9.97;;
18449;SDS011;9354;50.194;7.690;2022-11-06T05:15:37;24.87;;;10.57;;
18449;SDS011;9354;50.194;7.690;2022-11-06T05:18:07;23.13;;;9.67;;
18449;SDS011;9354;50.194;7.690;2022-11-06T05:20:34;24.00;;;10.43;;
18449;SDS011;9354;50.194;7.690;2022-11-06T05:23:02;25.33;;;9.63;;
18449;SDS011;9354;50.194;7.690;2022-11-06T05:25:29;30.77;;;10.53;;
18449;SDS011;9354;50.194;7.690;2022-11-06T05:27:57;26.60;;;10.43;;
18449;SDS011;9354;50.194;7.690;2022-11-06T05:30:25;22.97;;;9.77;;
18449;SDS011;9354;50.194;7.690;2022-11-06T05:32:53;28.07;;;11.03;;
18449;SDS011;9354;50.194;7.690;2022-11-06T05:35:22;21.87;;;10.40;;
18449;SDS011;9354;50.194;7.690;2022-11-06T05:37:50;26.03;;;10.73;;
18449;SDS011;9354;50.194;7.690;2022-11-06T05:40:23;26.73;;;10.87;;
18449;SDS011;9354;50.194;7.690;2022-11-06T05:42:51;28.17;;;10.20;;
18449;SDS011;9354;50.194;7.690;2022-11-06T05:45:18;31.90;;;10.57;;
18449;SDS011;9354;50.194;7.690;2022-11-06T05:47:45;25.30;;;10.40;;
18449;SDS011;9354;50.194;7.690;2022-11-06T05:50:13;25.30;;;11.27;;
18449;SDS011;9354;50.194;7.690;2022-11-06T05:52:42;22.00;;;10.50;;
18449;SDS011;9354;50.194;7.690;2022-11-06T05:55:09;25.23;;;10.03;;
18449;SDS011;9354;50.194;7.690;2022-11-06T05:57:36;26.47;;;10.23;;
18449;SDS011;9354;50.194;7.690;2022-11-06T06:00:04;24.20;;;11.07;;
18449;SDS011;9354;50.194;7.690;2022-11-06T06:02:33;24.47;;;9.47;;
18449;SDS011;9354;50.194;7.690;2022-11-06T06:05:02;29.27;;;9.97;;
18449;SDS011;9354;50.194;7.690;2022-11-06T06:07:30;21.90;;;9.20;;
18449;SDS011;9354;50.194;7.690;2022-11-06T06:09:59;24.30;;;9.83;;
18449;SDS011;9354;50.194;7.690;2022-11-06T06:12:26;24.00;;;9.17;;
18449;SDS011;9354;50.194;7.690;2022-11-06T06:14:54;19.27;;;8.47;;
18449;SDS011;9354;50.194;7.690;2022-11-06T06:17:21;21.53;;;9.23;;
18449;SDS011;9354;50.194;7.690;2022-11-06T06:19:48;18.33;;;8.10;;
18449;SDS011;9354;50.194;7.690;2022-11-06T06:22:16;23.17;;;8.33;;
18449;SDS011;9354;50.194;7.690;2022-11-06T06:24:43;23.13;;;7.53;;
18449;SDS011;9354;50.194;7.690;2022-11-06T06:27:12;18.50;;;7.50;;
18449;SDS011;9354;50.194;7.690;2022-11-06T06:29:39;20.47;;;8.60;;
18449;SDS011;9354;50.194;7.690;2022-11-06T06:32:07;18.00;;;7.50;;
18449;SDS011;9354;50.194;7.690;2022-11-06T06:34:34;18.83;;;7.43;;
18449;SDS011;9354;50.194;7.690;2022-11-06T06:37:01;17.83;;;7.60;;
18449;SDS011;9354;50.194;7.690;2022-11-06T06:39:29;18.47;;;7.87;;
18449;SDS011;9354;50.194;7.690;2022-11-06T06:41:56;15.03;;;7.57;;
18449;SDS011;9354;50.194;7.690;2022-11-06T06:44:25;17.97;;;8.10;;
18449;SDS011;9354;50.194;7.690;2022-11-06T06:46:53;17.77;;;7.33;;
18449;SDS011;9354;50.194;7.690;2022-11-06T06:49:20;20.10;;;7.43;;
18449;SDS011;9354;50.194;7.690;2022-11-06T06:51:48;18.10;;;7.23;;
18449;SDS011;9354;50.194;7.690;2022-11-06T06:54:16;18.83;;;7.23;;
18449;SDS011;9354;50.194;7.690;2022-11-06T06:56:43;17.50;;;7.90;;
18449;SDS011;9354;50.194;7.690;2022-11-06T06:59:10;25.47;;;7.97;;
18449;SDS011;9354;50.194;7.690;2022-11-06T07:01:39;23.43;;;8.70;;
18449;SDS011;9354;50.194;7.690;2022-11-06T07:04:07;28.27;;;9.60;;
18449;SDS011;9354;50.194;7.690;2022-11-06T07:06:35;23.67;;;9.13;;
18449;SDS011;9354;50.194;7.690;2022-11-06T07:09:03;36.13;;;10.20;;
18449;SDS011;9354;50.194;7.690;2022-11-06T07:11:30;28.30;;;10.07;;
18449;SDS011;9354;50.194;7.690;2022-11-06T07:13:57;28.53;;;9.83;;
18449;SDS011;9354;50.194;7.690;2022-11-06T07:16:25;23.90;;;10.37;;
18449;SDS011;9354;50.194;7.690;2022-11-06T07:18:55;28.57;;;10.47;;
18449;SDS011;9354;50.194;7.690;2022-11-06T07:21:23;25.27;;;9.70;;
18449;SDS011;9354;50.194;7.690;2022-11-06T07:23:50;24.27;;;9.80;;
18449;SDS011;9354;50.194;7.690;2022-11-06T07:26:18;25.07;;;9.97;;
18449;SDS011;9354;50.194;7.690;2022-11-06T07:28:45;22.43;;;10.13;;
18449;SDS011;9354;50.194;7.690;2022-11-06T07:31:13;18.80;;;9.27;;
18449;SDS011;9354;50.194;7.690;2022-11-06T07:33:40;22.23;;;8.67;;
18449;SDS011;9354;50.194;7.690;2022-11-06T07:36:10;19.27;;;9.23;;
18449;SDS011;9354;50.194;7.690;2022-11-06T07:38:39;17.33;;;8.27;;
18449;SDS011;9354;50.194;7.690;2022-11-06T07:41:09;17.87;;;8.37;;
18449;SDS011;9354;50.194;7.690;2022-11-06T07:43:37;21.50;;;9.13;;
18449;SDS011;9354;50.194;7.690;2022-11-06T07:46:06;16.67;;;8.80;;
18449;SDS011;9354;50.194;7.690;2022-11-06T07:48:35;18.40;;;8.27;;
18449;SDS011;9354;50.194;7.690;2022-11-06T07:51:03;18.93;;;8.77;;
18449;SDS011;9354;50.194;7.690;2022-11-06T07:53:33;23.77;;;8.67;;
18449;SDS011;9354;50.194;7.690;2022-11-06T07:56:01;22.10;;;7.80;;
18449;SDS011;9354;50.194;7.690;2022-11-06T07:58:29;15.67;;;8.33;;
18449;SDS011;9354;50.194;7.690;2022-11-06T08:00:57;18.07;;;8.10;;
18449;SDS011;9354;50.194;7.690;2022-11-06T08:03:24;18.93;;;7.57;;
18449;SDS011;9354;50.194;7.690;2022-11-06T08:05:54;15.03;;;7.13;;
18449;SDS011;9354;50.194;7.690;2022-11-06T08:08:22;15.30;;;7.47;;
18449;SDS011;9354;50.194;7.690;2022-11-06T08:10:50;15.70;;;7.33;;
18449;SDS011;9354;50.194;7.690;2022-11-06T08:13:18;21.43;;;7.30;;
18449;SDS011;9354;50.194;7.690;2022-11-06T08:15:45;13.37;;;6.90;;
18449;SDS011;9354;50.194;7.690;2022-11-06T08:18:13;15.03;;;7.20;;
18449;SDS011;9354;50.194;7.690;2022-11-06T08:20:40;18.57;;;6.87;;
18449;SDS011;9354;50.194;7.690;2022-11-06T08:23:09;14.33;;;6.63;;
18449;SDS011;9354;50.194;7.690;2022-11-06T08:25:37;13.13;;;6.57;;
18449;SDS011;9354;50.194;7.690;2022-11-06T08:28:06;14.93;;;7.23;;
18449;SDS011;9354;50.194;7.690;2022-11-06T08:30:34;13.10;;;5.90;;
18449;SDS011;9354;50.194;7.690;2022-11-06T08:33:03;14.33;;;5.83;;
18449;SDS011;9354;50.194;7.690;2022-11-06T08:35:32;12.30;;;5.70;;
18449;SDS011;9354;50.194;7.690;2022-11-06T08:38:00;11.73;;;4.80;;
18449;SDS011;9354;50.194;7.690;2022-11-06T08:40:28;9.13;;;4.73;;
18449;SDS011;9354;50.194;7.690;2022-11-06T08:42:57;8.17;;;3.73;;
18449;SDS011;9354;50.194;7.690;2022-11-06T08:45:27;12.57;;;4.27;;
18449;SDS011;9354;50.194;7.690;2022-11-06T08:47:54;6.30;;;3.63;;
18449;SDS011;9354;50.194;7.690;2022-11-06T08:50:25;6.67;;;3.13;;
18449;SDS011;9354;50.194;7.690;2022-11-06T08:52:54;7.43;;;3.60;;
18449;SDS011;9354;50.194;7.690;2022-11-06T08:55:22;7.27;;;3.43;;
18449;SDS011;9354;50.194;7.690;2022-11-06T08:57:49;5.73;;;3.00;;
18449;SDS011;9354;50.194;7.690;2022-11-06T09:00:19;9.43;;;3.13;;
18449;SDS011;9354;50.194;7.690;2022-11-06T09:02:48;6.57;;;2.90;;
18449;SDS011;9354;50.194;7.690;2022-11-06T09:05:16;10.30;;;3.30;;
18449;SDS011;9354;50.194;7.690;2022-11-06T09:07:43;9.37;;;3.27;;
18449;SDS011;9354;50.194;7.690;2022-11-06T09:10:10;8.47;;;2.90;;
18449;SDS011;9354;50.194;7.690;2022-11-06T09:12:38;5.60;;;2.50;;
18449;SDS011;9354;50.194;7.690;2022-11-06T09:15:05;6.83;;;2.73;;
18449;SDS011;9354;50.194;7.690;2022-11-06T09:17:33;9.47;;;2.90;;
18449;SDS011;9354;50.194;7.690;2022-11-06T09:20:09;6.77;;;2.70;;
18449;SDS011;9354;50.194;7.690;2022-11-06T09:22:37;6.47;;;3.03;;
18449;SDS011;9354;50.194;7.690;2022-11-06T09:25:05;6.33;;;3.10;;
18449;SDS011;9354;50.194;7.690;2022-11-06T09:27:39;7.07;;;2.50;;
18449;SDS011;9354;50.194;7.690;2022-11-06T09:30:08;11.33;;;2.97;;
18449;SDS011;9354;50.194;7.690;2022-11-06T09:32:36;6.03;;;2.83;;
18449;SDS011;9354;50.194;7.690;2022-11-06T09:35:04;6.23;;;2.90;;
18449;SDS011;9354;50.194;7.690;2022-11-06T09:37:34;7.73;;;3.50;;
18449;SDS011;9354;50.194;7.690;2022-11-06T09:40:02;7.00;;;2.73;;
18449;SDS011;9354;50.194;7.690;2022-11-06T09:42:31;9.37;;;2.93;;
18449;SDS011;9354;50.194;7.690;2022-11-06T09:45:10;5.93;;;2.83;;
18449;SDS011;9354;50.194;7.690;2022-11-06T09:47:40;4.07;;;2.60;;
18449;SDS011;9354;50.194;7.690;2022-11-06T09:50:14;7.73;;;3.00;;
18449;SDS011;9354;50.194;7.690;2022-11-06T09:52:50;8.57;;;3.23;;
18449;SDS011;9354;50.194;7.690;2022-11-06T09:55:21;7.77;;;4.37;;
18449;SDS011;9354;50.194;7.690;2022-11-06T09:57:53;8.73;;;4.00;;
18449;SDS011;9354;50.194;7.690;2022-11-06T10:00:23;9.30;;;3.63;;
18449;SDS011;9354;50.194;7.690;2022-11-06T10:02:51;10.80;;;3.00;;
18449;SDS011;9354;50.194;7.690;2022-11-06T10:05:23;8.80;;;3.23;;
18449;SDS011;9354;50.194;7.690;2022-11-06T10:07:54;6.47;;;3.17;;
18449;SDS011;9354;50.194;7.690;2022-11-06T10:10:24;6.57;;;3.40;;
18449;SDS011;9354;50.194;7.690;2022-11-06T10:13:01;10.47;;;3.40;;
18449;SDS011;9354;50.194;7.690;2022-11-06T10:15:41;12.90;;;3.53;;
18449;SDS011;9354;50.194;7.690;2022-11-06T10:18:15;7.47;;;3.37;;
18449;SDS011;9354;50.194;7.690;2022-11-06T10:21:07;8.57;;;3.37;;
18449;SDS011;9354;50.194;7.690;2022-11-06T10:23:41;6.40;;;3.10;;
18449;SDS011;9354;50.194;7.690;2022-11-06T10:26:13;5.43;;;2.80;;
18449;SDS011;9354;50.194;7.690;2022-11-06T10:28:55;8.87;;;3.40;;
18449;SDS011;9354;50.194;7.690;2022-11-06T10:31:35;4.43;;;2.90;;
18449;SDS011;9354;50.194;7.690;2022-11-06T10:34:12;5.43;;;3.00;;
18449;SDS011;9354;50.194;7.690;2022-11-06T10:36:43;8.83;;;3.17;;
18449;SDS011;9354;50.194;7.690;2022-11-06T10:39:18;5.13;;;2.53;;
18449;SDS011;9354;50.194;7.690;2022-11-06T10:41:50;7.67;;;2.43;;
18449;SDS011;9354;50.194;7.690;2022-11-06T10:44:22;6.83;;;2.47;;
18449;SDS011;9354;50.194;7.690;2022-11-06T10:46:54;5.03;;;2.50;;
18449;SDS011;9354;50.194;7.690;2022-11-06T10:49:29;8.87;;;3.43;;
18449;SDS011;9354;50.194;7.690;2022-11-06T10:55:23;7.07;;;2.40;;
18449;SDS011;9354;50.194;7.690;2022-11-06T10:58:13;9.17;;;2.50;;
18449;SDS011;9354;50.194;7.690;2022-11-06T11:00:42;5.40;;;2.40;;
18449;SDS011;9354;50.194;7.690;2022-11-06T11:03:15;6.33;;;2.77;;
18449;SDS011;9354;50.194;7.690;2022-11-06T11:05:47;4.83;;;2.10;;
18449;SDS011;9354;50.194;7.690;2022-11-06T11:11:01;6.50;;;2.70;;
18449;SDS011;9354;50.194;7.690;2022-11-06T11:13:29;6.63;;;2.77;;
18449;SDS011;9354;50.194;7.690;2022-11-06T11:15:56;6.53;;;2.23;;
18449;SDS011;9354;50.194;7.690;2022-11-06T11:18:24;5.00;;;2.17;;
18449;SDS011;9354;50.194;7.690;2022-11-06T11:21:03;5.63;;;2.60;;
18449;SDS011;9354;50.194;7.690;2022-11-06T11:23:33;6.73;;;2.40;;
18449;SDS011;9354;50.194;7.690;2022-11-06T11:26:17;8.23;;;3.03;;
18449;SDS011;9354;50.194;7.690;2022-11-06T11:28:49;6.80;;;3.20;;
18449;SDS011;9354;50.194;7.690;2022-11-06T11:31:19;6.47;;;3.00;;
18449;SDS011;9354;50.194;7.690;2022-11-06T11:33:53;8.80;;;2.73;;
18449;SDS011;9354;50.194;7.690;2022-11-06T11:36:22;6.60;;;2.70;;
18449;SDS011;9354;50.194;7.690;2022-11-06T11:38:50;6.23;;;3.03;;
18449;SDS011;9354;50.194;7.690;2022-11-06T11:41:23;5.80;;;3.10;;
18449;SDS011;9354;50.194;7.690;2022-11-06T11:43:57;6.23;;;2.90;;
18449;SDS011;9354;50.194;7.690;2022-11-06T11:46:31;6.07;;;3.20;;
18449;SDS011;9354;50.194;7.690;2022-11-06T11:48:59;7.23;;;2.80;;
18449;SDS011;9354;50.194;7.690;2022-11-06T11:51:32;5.40;;;3.60;;
18449;SDS011;9354;50.194;7.690;2022-11-06T11:54:02;7.33;;;3.13;;
18449;SDS011;9354;50.194;7.690;2022-11-06T11:56:34;7.90;;;3.40;;
18449;SDS011;9354;50.194;7.690;2022-11-06T11:59:14;6.20;;;3.40;;
18449;SDS011;9354;50.194;7.690;2022-11-06T12:01:44;10.00;;;3.40;;
18449;SDS011;9354;50.194;7.690;2022-11-06T12:04:17;9.00;;;3.77;;
18449;SDS011;9354;50.194;7.690;2022-11-06T12:06:57;8.97;;;3.00;;
18449;SDS011;9354;50.194;7.690;2022-11-06T12:09:27;8.87;;;2.90;;
18449;SDS011;9354;50.194;7.690;2022-11-06T12:11:59;6.10;;;2.90;;
18449;SDS011;9354;50.194;7.690;2022-11-06T12:14:34;4.30;;;2.83;;
18449;SDS011;9354;50.194;7.690;2022-11-06T12:17:04;5.90;;;3.30;;
18449;SDS011;9354;50.194;7.690;2022-11-06T12:19:37;6.37;;;3.20;;
18449;SDS011;9354;50.194;7.690;2022-11-06T12:22:09;5.97;;;3.50;;
18449;SDS011;9354;50.194;7.690;2022-11-06T12:24:43;6.47;;;3.20;;
18449;SDS011;9354;50.194;7.690;2022-11-06T12:27:17;5.33;;;2.93;;
18449;SDS011;9354;50.194;7.690;2022-11-06T12:29:49;6.00;;;3.30;;
18449;SDS011;9354;50.194;7.690;2022-11-06T12:32:25;4.97;;;2.80;;
18449;SDS011;9354;50.194;7.690;2022-11-06T12:35:00;7.40;;;3.40;;
18449;SDS011;9354;50.194;7.690;2022-11-06T12:37:37;5.17;;;2.70;;
18449;SDS011;9354;50.194;7.690;2022-11-06T12:40:14;3.93;;;2.90;;
18449;SDS011;9354;50.194;7.690;2022-11-06T12:42:54;4.27;;;2.53;;
18449;SDS011;9354;50.194;7.690;2022-11-06T12:45:28;7.50;;;2.80;;
18449;SDS011;9354;50.194;7.690;2022-11-06T12:48:06;5.77;;;3.50;;
18449;SDS011;9354;50.194;7.690;2022-11-06T12:50:43;6.03;;;3.40;;
18449;SDS011;9354;50.194;7.690;2022-11-06T12:53:20;6.37;;;3.33;;
18449;SDS011;9354;50.194;7.690;2022-11-06T12:55:58;6.53;;;2.93;;
18449;SDS011;9354;50.194;7.690;2022-11-06T12:58:54;4.67;;;2.93;;
18449;SDS011;9354;50.194;7.690;2022-11-06T13:01:34;8.77;;;3.73;;
18449;SDS011;9354;50.194;7.690;2022-11-06T13:04:16;7.23;;;3.70;;
18449;SDS011;9354;50.194;7.690;2022-11-06T13:06:58;5.87;;;3.53;;
18449;SDS011;9354;50.194;7.690;2022-11-06T13:09:45;10.87;;;4.40;;
18449;SDS011;9354;50.194;7.690;2022-11-06T13:12:18;7.37;;;3.97;;
18449;SDS011;9354;50.194;7.690;2022-11-06T13:15:00;6.97;;;3.67;;
18449;SDS011;9354;50.194;7.690;2022-11-06T13:17:38;5.73;;;3.70;;
18449;SDS011;9354;50.194;7.690;2022-11-06T13:20:11;8.80;;;4.10;;
18449;SDS011;9354;50.194;7.690;2022-11-06T13:22:48;8.20;;;3.63;;
18449;SDS011;9354;50.194;7.690;2022-11-06T13:25:23;5.50;;;3.60;;
18449;SDS011;9354;50.194;7.690;2022-11-06T13:27:59;7.23;;;3.80;;
18449;SDS011;9354;50.194;7.690;2022-11-06T13:30:33;9.33;;;3.73;;
18449;SDS011;9354;50.194;7.690;2022-11-06T13:33:05;6.70;;;3.60;;
18449;SDS011;9354;50.194;7.690;2022-11-06T13:35:38;7.33;;;4.07;;
18449;SDS011;9354;50.194;7.690;2022-11-06T13:38:10;11.17;;;4.30;;
18449;SDS011;9354;50.194;7.690;2022-11-06T13:40:44;9.00;;;4.60;;
18449;SDS011;9354;50.194;7.690;2022-11-06T13:43:18;8.73;;;4.80;;
18449;SDS011;9354;50.194;7.690;2022-11-06T13:45:52;11.07;;;5.30;;
18449;SDS011;9354;50.194;7.690;2022-11-06T13:48:30;9.27;;;4.97;;
18449;SDS011;9354;50.194;7.690;2022-11-06T13:51:07;10.47;;;4.97;;
18449;SDS011;9354;50.194;7.690;2022-11-06T13:53:43;14.30;;;5.40;;
18449;SDS011;9354;50.194;7.690;2022-11-06T13:56:18;11.97;;;6.23;;
18449;SDS011;9354;50.194;7.690;2022-11-06T13:59:09;12.10;;;5.77;;
18449;SDS011;9354;50.194;7.690;2022-11-06T14:02:06;13.87;;;6.50;;
18449;SDS011;9354;50.194;7.690;2022-11-06T14:08:00;13.07;;;6.03;;
18449;SDS011;9354;50.194;7.690;2022-11-06T14:10:32;11.50;;;6.63;;
18449;SDS011;9354;50.194;7.690;2022-11-06T14:13:01;12.77;;;6.90;;
18449;SDS011;9354;50.194;7.690;2022-11-06T14:15:33;11.30;;;5.43;;
18449;SDS011;9354;50.194;7.690;2022-11-06T14:18:04;10.03;;;5.60;;
18449;SDS011;9354;50.194;7.690;2022-11-06T14:20:32;13.43;;;6.53;;
18449;SDS011;9354;50.194;7.690;2022-11-06T14:26:07;14.63;;;6.00;;
18449;SDS011;9354;50.194;7.690;2022-11-06T14:28:36;12.93;;;6.40;;
18449;SDS011;9354;50.194;7.690;2022-11-06T14:31:05;13.70;;;6.63;;
18449;SDS011;9354;50.194;7.690;2022-11-06T14:36:28;12.53;;;5.90;;
18449;SDS011;9354;50.194;7.690;2022-11-06T14:39:08;11.07;;;5.37;;
18449;SDS011;9354;50.194;7.690;2022-11-06T14:47:19;13.80;;;5.67;;
18449;SDS011;9354;50.194;7.690;2022-11-06T14:50:06;14.87;;;5.70;;
18449;SDS011;9354;50.194;7.690;2022-11-06T14:52:49;10.23;;;5.63;;
18449;SDS011;9354;50.194;7.690;2022-11-06T14:55:24;12.43;;;5.90;;
18449;SDS011;9354;50.194;7.690;2022-11-06T14:57:55;10.73;;;5.53;;
18449;SDS011;9354;50.194;7.690;2022-11-06T15:00:33;11.63;;;6.23;;
18449;SDS011;9354;50.194;7.690;2022-11-06T15:03:04;11.33;;;5.80;;
18449;SDS011;9354;50.194;7.690;2022-11-06T15:05:43;13.10;;;6.20;;
18449;SDS011;9354;50.194;7.690;2022-11-06T15:08:11;12.37;;;6.00;;
18449;SDS011;9354;50.194;7.690;2022-11-06T15:13:29;13.80;;;6.33;;
18449;SDS011;9354;50.194;7.690;2022-11-06T15:15:59;11.47;;;6.40;;
18449;SDS011;9354;50.194;7.690;2022-11-06T15:18:30;15.77;;;5.70;;
18449;SDS011;9354;50.194;7.690;2022-11-06T15:21:05;10.93;;;6.17;;
18449;SDS011;9354;50.194;7.690;2022-11-06T15:23:38;13.73;;;5.63;;
18449;SDS011;9354;50.194;7.690;2022-11-06T15:26:14;11.07;;;6.00;;
18449;SDS011;9354;50.194;7.690;2022-11-06T15:28:49;10.43;;;5.80;;
18449;SDS011;9354;50.194;7.690;2022-11-06T15:31:28;11.57;;;5.97;;
18449;SDS011;9354;50.194;7.690;2022-11-06T15:33:57;8.60;;;5.30;;
18449;SDS011;9354;50.194;7.690;2022-11-06T15:36:31;9.20;;;4.83;;
18449;SDS011;9354;50.194;7.690;2022-11-06T15:41:49;11.93;;;4.80;;
18449;SDS011;9354;50.194;7.690;2022-11-06T15:44:17;10.67;;;5.43;;
18449;SDS011;9354;50.194;7.690;2022-11-06T15:46:52;8.20;;;4.40;;
18449;SDS011;9354;50.194;7.690;2022-11-06T15:49:20;7.10;;;3.73;;